VLG8WD LEAL-LEBL
Flight info
| Callsign | VLG8WD |
|---|---|
| Flight time | 0h 44m |
| Altitude | 30000 |
| Route | MITOS N608 MATEX |
| Aircraft | A320/M-SDE3FGHIRWY/LB1 |
Departure
| Time | 2026-05-03 20:28 |
|---|---|
| Airport | Alicante-Elche Miguel Hernández Airport (LEAL) |
Arrival
| Time | 2026-05-03 21:12 |
|---|---|
| Airport | Josep Tarradellas Barcelona-El Prat Airport (LEBL) |
| Time | Latitude | Longitude | Altitude | Speed | Heading |
|---|---|---|---|---|---|
| 2026-05-03 20:16 | 38.28549 | -0.55451 | 93 ft | 0 kts | 10° |
| 2026-05-03 20:21 | 38.28535 | -0.55454 | 94 ft | 4 kts | 7° |
| 2026-05-03 20:21 | 38.28508 | -0.55457 | 95 ft | 4 kts | 357° |
| 2026-05-03 20:22 | 38.28483 | -0.55451 | 97 ft | 4 kts | 321° |
| 2026-05-03 20:22 | 38.28474 | -0.55437 | 96 ft | 0 kts | 280° |
| 2026-05-03 20:24 | 38.28475 | -0.55451 | 97 ft | 8 kts | 279° |
| 2026-05-03 20:24 | 38.28499 | -0.55614 | 98 ft | 26 kts | 282° |
| 2026-05-03 20:24 | 38.28536 | -0.55856 | 98 ft | 31 kts | 281° |
| 2026-05-03 20:24 | 38.28587 | -0.56128 | 100 ft | 32 kts | 281° |
| 2026-05-03 20:25 | 38.28624 | -0.56398 | 112 ft | 30 kts | 279° |
| 2026-05-03 20:25 | 38.28610 | -0.56591 | 118 ft | 19 kts | 208° |
| 2026-05-03 20:25 | 38.28511 | -0.56645 | 118 ft | 3 kts | 258° |
| 2026-05-03 20:25 | 38.28520 | -0.56708 | 120 ft | 17 kts | 281° |
| 2026-05-03 20:26 | 38.28548 | -0.56894 | 129 ft | 23 kts | 281° |
| 2026-05-03 20:26 | 38.28577 | -0.57085 | 138 ft | 21 kts | 274° |
| 2026-05-03 20:26 | 38.28597 | -0.57259 | 145 ft | 18 kts | 281° |
| 2026-05-03 20:26 | 38.28608 | -0.57390 | 150 ft | 13 kts | 246° |
| 2026-05-03 20:27 | 38.28526 | -0.57437 | 150 ft | 15 kts | 192° |
| 2026-05-03 20:27 | 38.28453 | -0.57454 | 153 ft | 5 kts | 188° |
| 2026-05-03 20:27 | 38.28436 | -0.57392 | 151 ft | 16 kts | 101° |
| 2026-05-03 20:27 | 38.28390 | -0.57069 | 141 ft | 70 kts | 100° |
| 2026-05-03 20:28 | 38.28266 | -0.56187 | 113 ft | 129 kts | 100° |
| 2026-05-03 20:28 | 38.28083 | -0.54908 | 365 ft | 151 kts | 101° |
| 2026-05-03 20:28 | 38.27863 | -0.53614 | 1020 ft | 149 kts | 102° |
| 2026-05-03 20:28 | 38.27644 | -0.52325 | 1598 ft | 149 kts | 103° |
| 2026-05-03 20:29 | 38.27422 | -0.51022 | 2034 ft | 157 kts | 102° |
| 2026-05-03 20:29 | 38.27439 | -0.49542 | 2260 ft | 180 kts | 71° |
| 2026-05-03 20:29 | 38.27953 | -0.48004 | 2529 ft | 203 kts | 66° |
| 2026-05-03 20:29 | 38.28582 | -0.46274 | 2851 ft | 228 kts | 65° |
| 2026-05-03 20:30 | 38.29291 | -0.44347 | 3281 ft | 252 kts | 65° |
| 2026-05-03 20:30 | 38.30065 | -0.42254 | 3901 ft | 267 kts | 65° |
| 2026-05-03 20:30 | 38.30869 | -0.40082 | 4770 ft | 274 kts | 64° |
| 2026-05-03 20:30 | 38.31685 | -0.37862 | 5632 ft | 280 kts | 64° |
| 2026-05-03 20:31 | 38.32514 | -0.35597 | 6478 ft | 285 kts | 64° |
| 2026-05-03 20:31 | 38.33362 | -0.33282 | 7261 ft | 291 kts | 64° |
| 2026-05-03 20:31 | 38.34225 | -0.30919 | 8039 ft | 298 kts | 65° |
| 2026-05-03 20:31 | 38.35105 | -0.28502 | 8814 ft | 304 kts | 65° |
| 2026-05-03 20:32 | 38.36002 | -0.26035 | 9571 ft | 310 kts | 65° |
| 2026-05-03 20:32 | 38.36920 | -0.23512 | 10186 ft | 322 kts | 65° |
| 2026-05-03 20:32 | 38.37895 | -0.20830 | 10410 ft | 345 kts | 65° |
| 2026-05-03 20:32 | 38.38933 | -0.17973 | 10758 ft | 362 kts | 65° |
| 2026-05-03 20:33 | 38.40000 | -0.15035 | 11354 ft | 369 kts | 66° |
| 2026-05-03 20:33 | 38.41088 | -0.12045 | 12000 ft | 374 kts | 65° |
| 2026-05-03 20:33 | 38.42199 | -0.09024 | 12647 ft | 380 kts | 63° |
| 2026-05-03 20:33 | 38.43686 | -0.06212 | 13279 ft | 385 kts | 47° |
| 2026-05-03 20:34 | 38.45677 | -0.03924 | 13899 ft | 388 kts | 32° |
| 2026-05-03 20:34 | 38.48056 | -0.02302 | 14488 ft | 388 kts | 17° |
| 2026-05-03 20:34 | 38.50651 | -0.01449 | 15100 ft | 384 kts | 2° |
| 2026-05-03 20:34 | 38.53309 | -0.01312 | 15717 ft | 383 kts | 355° |
| 2026-05-03 20:35 | 38.55984 | -0.01302 | 16333 ft | 386 kts | 355° |
| 2026-05-03 20:35 | 38.58678 | -0.01292 | 16952 ft | 389 kts | 355° |
| 2026-05-03 20:35 | 38.61392 | -0.01277 | 17570 ft | 392 kts | 355° |
| 2026-05-03 20:35 | 38.64131 | -0.01259 | 18188 ft | 395 kts | 355° |
| 2026-05-03 20:36 | 38.66889 | -0.01238 | 18699 ft | 399 kts | 355° |
| 2026-05-03 20:36 | 38.69677 | -0.01215 | 19276 ft | 402 kts | 355° |
| 2026-05-03 20:36 | 38.72479 | -0.01194 | 19860 ft | 405 kts | 355° |
| 2026-05-03 20:36 | 38.75305 | -0.01175 | 20439 ft | 408 kts | 355° |
| 2026-05-03 20:37 | 38.78151 | -0.01158 | 20991 ft | 411 kts | 355° |
| 2026-05-03 20:37 | 38.81018 | -0.01144 | 21530 ft | 414 kts | 355° |
| 2026-05-03 20:37 | 38.83908 | -0.01131 | 22066 ft | 417 kts | 355° |
| 2026-05-03 20:37 | 38.86820 | -0.01117 | 22596 ft | 420 kts | 355° |
| 2026-05-03 20:38 | 38.89755 | -0.01096 | 23107 ft | 423 kts | 355° |
| 2026-05-03 20:38 | 38.92711 | -0.01073 | 23602 ft | 427 kts | 355° |
| 2026-05-03 20:38 | 38.95688 | -0.01048 | 24025 ft | 430 kts | 355° |
| 2026-05-03 20:38 | 38.98686 | -0.01026 | 24453 ft | 432 kts | 355° |
| 2026-05-03 20:39 | 39.01699 | -0.01005 | 24883 ft | 434 kts | 355° |
| 2026-05-03 20:39 | 39.04728 | -0.00984 | 25298 ft | 436 kts | 355° |
| 2026-05-03 20:39 | 39.07767 | -0.00963 | 25718 ft | 438 kts | 355° |
| 2026-05-03 20:39 | 39.10825 | -0.00943 | 26121 ft | 440 kts | 355° |
| 2026-05-03 20:40 | 39.13900 | -0.00926 | 26517 ft | 443 kts | 355° |
| 2026-05-03 20:40 | 39.16986 | -0.00907 | 26910 ft | 445 kts | 355° |
| 2026-05-03 20:40 | 39.20086 | -0.00885 | 27298 ft | 447 kts | 354° |
| 2026-05-03 20:40 | 39.23206 | -0.00864 | 27686 ft | 449 kts | 354° |
| 2026-05-03 20:41 | 39.26333 | -0.00841 | 28074 ft | 451 kts | 354° |
| 2026-05-03 20:41 | 39.29484 | -0.00813 | 28459 ft | 453 kts | 355° |
| 2026-05-03 20:41 | 39.32642 | -0.00783 | 28834 ft | 455 kts | 354° |
| 2026-05-03 20:41 | 39.35819 | -0.00757 | 29207 ft | 458 kts | 354° |
| 2026-05-03 20:42 | 39.39012 | -0.00740 | 29572 ft | 460 kts | 354° |
| 2026-05-03 20:42 | 39.42215 | -0.00726 | 29912 ft | 462 kts | 354° |
| 2026-05-03 20:42 | 39.45419 | -0.00712 | 30000 ft | 454 kts | 354° |
| 2026-05-03 20:43 | 39.51619 | -0.00667 | 30001 ft | 446 kts | 354° |
| 2026-05-03 20:43 | 39.57812 | -0.00637 | 30000 ft | 445 kts | 354° |
| 2026-05-03 20:44 | 39.64001 | -0.00602 | 30002 ft | 445 kts | 354° |
| 2026-05-03 20:44 | 39.70200 | -0.00554 | 30008 ft | 445 kts | 354° |
| 2026-05-03 20:45 | 39.76393 | -0.00508 | 30003 ft | 445 kts | 354° |
| 2026-05-03 20:45 | 39.82595 | -0.00351 | 30007 ft | 449 kts | 1° |
| 2026-05-03 20:46 | 39.88750 | 0.01505 | 30019 ft | 457 kts | 11° |
| 2026-05-03 20:46 | 39.94855 | 0.03786 | 30035 ft | 457 kts | 11° |
| 2026-05-03 20:47 | 40.00977 | 0.06055 | 30044 ft | 457 kts | 12° |
| 2026-05-03 20:47 | 40.07094 | 0.08334 | 30062 ft | 457 kts | 12° |
| 2026-05-03 20:48 | 40.13214 | 0.10617 | 30070 ft | 458 kts | 12° |
| 2026-05-03 20:48 | 40.19342 | 0.12911 | 30068 ft | 458 kts | 12° |
| 2026-05-03 20:49 | 40.25474 | 0.15206 | 30062 ft | 458 kts | 12° |
| 2026-05-03 20:49 | 40.31618 | 0.17498 | 29927 ft | 468 kts | 12° |
| 2026-05-03 20:49 | 40.34777 | 0.18680 | 28681 ft | 466 kts | 12° |
| 2026-05-03 20:50 | 40.37854 | 0.19844 | 28021 ft | 451 kts | 12° |
| 2026-05-03 20:50 | 40.40810 | 0.20968 | 27514 ft | 435 kts | 12° |
| 2026-05-03 20:50 | 40.43676 | 0.22054 | 26991 ft | 423 kts | 12° |
| 2026-05-03 20:50 | 40.46442 | 0.23094 | 26506 ft | 418 kts | 12° |
| 2026-05-03 20:51 | 40.49239 | 0.24182 | 26004 ft | 421 kts | 17° |
| 2026-05-03 20:51 | 40.51892 | 0.25852 | 25519 ft | 426 kts | 30° |
| 2026-05-03 20:51 | 40.54232 | 0.28243 | 25038 ft | 428 kts | 44° |
| 2026-05-03 20:51 | 40.56139 | 0.31241 | 24618 ft | 427 kts | 57° |
| 2026-05-03 20:52 | 40.57533 | 0.34673 | 24212 ft | 424 kts | 70° |
| 2026-05-03 20:52 | 40.58457 | 0.38341 | 23801 ft | 422 kts | 75° |
| 2026-05-03 20:52 | 40.59327 | 0.42020 | 23357 ft | 420 kts | 75° |
| 2026-05-03 20:52 | 40.60194 | 0.45677 | 22947 ft | 417 kts | 75° |
| 2026-05-03 20:53 | 40.61055 | 0.49306 | 22549 ft | 414 kts | 75° |
| 2026-05-03 20:53 | 40.61904 | 0.52910 | 22143 ft | 411 kts | 75° |
| 2026-05-03 20:53 | 40.62746 | 0.56496 | 21754 ft | 409 kts | 75° |
| 2026-05-03 20:53 | 40.63578 | 0.60061 | 21355 ft | 406 kts | 75° |
| 2026-05-03 20:54 | 40.64137 | 0.62458 | 21079 ft | 405 kts | 75° |
| 2026-05-03 20:54 | 40.66045 | 0.70636 | 20190 ft | 399 kts | 75° |
| 2026-05-03 20:54 | 40.66860 | 0.74123 | 19807 ft | 397 kts | 75° |
| 2026-05-03 20:55 | 40.67670 | 0.77593 | 19423 ft | 395 kts | 75° |
| 2026-05-03 20:55 | 40.68472 | 0.81043 | 19045 ft | 393 kts | 75° |
| 2026-05-03 20:55 | 40.69271 | 0.84479 | 18667 ft | 391 kts | 75° |
| 2026-05-03 20:55 | 40.70064 | 0.87896 | 18281 ft | 389 kts | 75° |
| 2026-05-03 20:56 | 40.70586 | 0.90146 | 18002 ft | 387 kts | 75° |
| 2026-05-03 20:56 | 40.71369 | 0.93530 | 17632 ft | 385 kts | 75° |
| 2026-05-03 20:56 | 40.72144 | 0.96890 | 17266 ft | 382 kts | 75° |
| 2026-05-03 20:56 | 40.72914 | 1.00228 | 16890 ft | 379 kts | 75° |
| 2026-05-03 20:57 | 40.73676 | 1.03539 | 16527 ft | 376 kts | 75° |
| 2026-05-03 20:57 | 40.74432 | 1.06831 | 16172 ft | 374 kts | 75° |
| 2026-05-03 20:57 | 40.75183 | 1.10103 | 15809 ft | 371 kts | 75° |
| 2026-05-03 20:57 | 40.75925 | 1.13349 | 15459 ft | 369 kts | 75° |
| 2026-05-03 20:58 | 40.76661 | 1.16575 | 15107 ft | 366 kts | 75° |
| 2026-05-03 20:58 | 40.77392 | 1.19781 | 14758 ft | 363 kts | 75° |
| 2026-05-03 20:58 | 40.78119 | 1.22963 | 14411 ft | 361 kts | 75° |
| 2026-05-03 20:58 | 40.78840 | 1.26123 | 14064 ft | 359 kts | 75° |
| 2026-05-03 20:59 | 40.79555 | 1.29264 | 13708 ft | 356 kts | 75° |
| 2026-05-03 20:59 | 40.80265 | 1.32386 | 13351 ft | 354 kts | 75° |
| 2026-05-03 20:59 | 40.80971 | 1.35492 | 13009 ft | 352 kts | 75° |
| 2026-05-03 20:59 | 40.81672 | 1.38582 | 12676 ft | 350 kts | 75° |
| 2026-05-03 21:00 | 40.82366 | 1.41654 | 12339 ft | 348 kts | 75° |
| 2026-05-03 21:00 | 40.82824 | 1.43679 | 12119 ft | 347 kts | 75° |
| 2026-05-03 21:00 | 40.83744 | 1.47751 | 11663 ft | 345 kts | 74° |
| 2026-05-03 21:00 | 40.84427 | 1.50771 | 11373 ft | 341 kts | 74° |
| 2026-05-03 21:01 | 40.85092 | 1.53717 | 11246 ft | 330 kts | 74° |
| 2026-05-03 21:01 | 40.85737 | 1.56586 | 11026 ft | 323 kts | 74° |
| 2026-05-03 21:01 | 40.86383 | 1.59402 | 10602 ft | 317 kts | 70° |
| 2026-05-03 21:01 | 40.87382 | 1.61960 | 10114 ft | 310 kts | 53° |
| 2026-05-03 21:02 | 40.88822 | 1.64032 | 9830 ft | 305 kts | 36° |
| 2026-05-03 21:02 | 40.90653 | 1.65341 | 9631 ft | 299 kts | 14° |
| 2026-05-03 21:02 | 40.92672 | 1.65968 | 9029 ft | 297 kts | 8° |
| 2026-05-03 21:02 | 40.94668 | 1.66487 | 8594 ft | 287 kts | 8° |
| 2026-05-03 21:03 | 40.96595 | 1.66972 | 8210 ft | 277 kts | 8° |
| 2026-05-03 21:03 | 40.98460 | 1.67437 | 7845 ft | 268 kts | 8° |
| 2026-05-03 21:03 | 41.00279 | 1.67888 | 7488 ft | 266 kts | 8° |
| 2026-05-03 21:03 | 41.02093 | 1.68338 | 7127 ft | 265 kts | 8° |
| 2026-05-03 21:04 | 41.03898 | 1.68789 | 6772 ft | 264 kts | 8° |
| 2026-05-03 21:04 | 41.05718 | 1.69243 | 6413 ft | 267 kts | 8° |
| 2026-05-03 21:04 | 41.07531 | 1.69696 | 6033 ft | 270 kts | 8° |
| 2026-05-03 21:04 | 41.09380 | 1.70162 | 5664 ft | 272 kts | 9° |
| 2026-05-03 21:05 | 41.11249 | 1.70636 | 5277 ft | 274 kts | 9° |
| 2026-05-03 21:05 | 41.13128 | 1.71115 | 4896 ft | 276 kts | 10° |
| 2026-05-03 21:05 | 41.15001 | 1.71597 | 4723 ft | 269 kts | 12° |
| 2026-05-03 21:05 | 41.16700 | 1.72487 | 4640 ft | 259 kts | 34° |
| 2026-05-03 21:06 | 41.17970 | 1.74085 | 4534 ft | 247 kts | 56° |
| 2026-05-03 21:06 | 41.18750 | 1.76059 | 4416 ft | 236 kts | 67° |
| 2026-05-03 21:06 | 41.19421 | 1.78001 | 4312 ft | 226 kts | 66° |
| 2026-05-03 21:06 | 41.20063 | 1.79855 | 4220 ft | 216 kts | 67° |
| 2026-05-03 21:07 | 41.20676 | 1.81627 | 4109 ft | 208 kts | 67° |
| 2026-05-03 21:07 | 41.21275 | 1.83360 | 3905 ft | 204 kts | 67° |
| 2026-05-03 21:07 | 41.21863 | 1.85059 | 3624 ft | 201 kts | 66° |
| 2026-05-03 21:07 | 41.22442 | 1.86736 | 3359 ft | 198 kts | 67° |
| 2026-05-03 21:08 | 41.23012 | 1.88384 | 3105 ft | 194 kts | 67° |
| 2026-05-03 21:08 | 41.23567 | 1.89995 | 2843 ft | 190 kts | 67° |
| 2026-05-03 21:08 | 41.24113 | 1.91575 | 2597 ft | 187 kts | 67° |
| 2026-05-03 21:08 | 41.24650 | 1.93133 | 2357 ft | 184 kts | 66° |
| 2026-05-03 21:09 | 41.25175 | 1.94658 | 2108 ft | 178 kts | 66° |
| 2026-05-03 21:09 | 41.25663 | 1.96074 | 1872 ft | 156 kts | 66° |
| 2026-05-03 21:09 | 41.26094 | 1.97325 | 1656 ft | 144 kts | 66° |
| 2026-05-03 21:09 | 41.26501 | 1.98507 | 1463 ft | 139 kts | 66° |
| 2026-05-03 21:10 | 41.26900 | 1.99668 | 1278 ft | 137 kts | 65° |
| 2026-05-03 21:10 | 41.27294 | 2.00814 | 1089 ft | 136 kts | 65° |
| 2026-05-03 21:10 | 41.27686 | 2.01957 | 901 ft | 136 kts | 65° |
| 2026-05-03 21:10 | 41.28074 | 2.03108 | 724 ft | 137 kts | 65° |
| 2026-05-03 21:11 | 41.28467 | 2.04262 | 536 ft | 138 kts | 63° |
| 2026-05-03 21:11 | 41.28869 | 2.05426 | 326 ft | 138 kts | 63° |
| 2026-05-03 21:11 | 41.29268 | 2.06590 | 153 ft | 138 kts | 63° |
| 2026-05-03 21:11 | 41.29670 | 2.07746 | 38 ft | 137 kts | 63° |
| 2026-05-03 21:12 | 41.30020 | 2.08757 | 21 ft | 99 kts | 65° |
| 2026-05-03 21:12 | 41.30237 | 2.09380 | 17 ft | 50 kts | 64° |
| 2026-05-03 21:12 | 41.30348 | 2.09706 | 20 ft | 33 kts | 66° |
| 2026-05-03 21:12 | 41.30322 | 2.09816 | 17 ft | 9 kts | 172° |
| 2026-05-03 21:13 | 41.30253 | 2.09860 | 16 ft | 13 kts | 147° |
| 2026-05-03 21:13 | 41.30198 | 2.09829 | 16 ft | 13 kts | 242° |
| 2026-05-03 21:13 | 41.30124 | 2.09609 | 16 ft | 35 kts | 246° |
| 2026-05-03 21:13 | 41.30025 | 2.09303 | 17 ft | 37 kts | 245° |
| 2026-05-03 21:14 | 41.29921 | 2.08988 | 19 ft | 38 kts | 247° |
| 2026-05-03 21:14 | 41.29810 | 2.08665 | 17 ft | 40 kts | 243° |
| 2026-05-03 21:14 | 41.29683 | 2.08478 | 16 ft | 22 kts | 168° |
| 2026-05-03 21:14 | 41.29611 | 2.08406 | 17 ft | 21 kts | 245° |
| 2026-05-03 21:15 | 41.29516 | 2.08290 | 16 ft | 13 kts | 160° |
| 2026-05-03 21:15 | 41.29419 | 2.08349 | 18 ft | 19 kts | 164° |
| 2026-05-03 21:15 | 41.29318 | 2.08272 | 22 ft | 17 kts | 210° |
| 2026-05-03 21:15 | 41.29241 | 2.08220 | 19 ft | 0 kts | 201° |